sensor_id;sensor_type;location;lat;lon;timestamp;pressure;altitude;pressure_sealevel;temperature;humidity
36260;BME280;22296;50.824;5.644;2023-08-30T00:01:13;100044.31;;;19.86;54.57
36260;BME280;22296;50.824;5.644;2023-08-30T00:03:40;100038.72;;;19.86;54.26
36260;BME280;22296;50.824;5.644;2023-08-30T00:06:07;100045.03;;;19.83;54.44
36260;BME280;22296;50.824;5.644;2023-08-30T00:08:34;100035.41;;;19.81;54.41
36260;BME280;22296;50.824;5.644;2023-08-30T00:11:01;100032.19;;;19.79;54.45
36260;BME280;22296;50.824;5.644;2023-08-30T00:13:30;100030.19;;;19.79;54.60
36260;BME280;22296;50.824;5.644;2023-08-30T00:15:59;100028.56;;;19.78;54.40
36260;BME280;22296;50.824;5.644;2023-08-30T00:18:25;100029.75;;;19.77;54.53
36260;BME280;22296;50.824;5.644;2023-08-30T00:20:52;100024.16;;;19.77;54.48
36260;BME280;22296;50.824;5.644;2023-08-30T00:23:20;100028.16;;;19.76;54.60
36260;BME280;22296;50.824;5.644;2023-08-30T00:25:47;100022.56;;;19.76;54.66
36260;BME280;22296;50.824;5.644;2023-08-30T00:28:14;100013.69;;;19.74;54.82
36260;BME280;22296;50.824;5.644;2023-08-30T00:30:41;100019.28;;;19.74;54.50
36260;BME280;22296;50.824;5.644;2023-08-30T00:33:08;100020.06;;;19.71;54.55
36260;BME280;22296;50.824;5.644;2023-08-30T00:35:35;100017.63;;;19.70;54.69
36260;BME280;22296;50.824;5.644;2023-08-30T00:38:02;100017.63;;;19.70;54.68
36260;BME280;22296;50.824;5.644;2023-08-30T00:40:37;100004.03;;;19.68;54.51
36260;BME280;22296;50.824;5.644;2023-08-30T00:43:06;100006.81;;;19.68;54.78
36260;BME280;22296;50.824;5.644;2023-08-30T00:45:33;100008.75;;;19.64;54.61
36260;BME280;22296;50.824;5.644;2023-08-30T00:48:01;100007.09;;;19.63;54.56
36260;BME280;22296;50.824;5.644;2023-08-30T00:50:28;100009.56;;;19.65;54.61
36260;BME280;22296;50.824;5.644;2023-08-30T00:52:55;100007.09;;;19.63;54.62
36260;BME280;22296;50.824;5.644;2023-08-30T00:55:22;99997.13;;;19.62;54.72
36260;BME280;22296;50.824;5.644;2023-08-30T00:57:49;100005.50;;;19.62;54.83
36260;BME280;22296;50.824;5.644;2023-08-30T01:00:15;100002.25;;;19.60;54.77
36260;BME280;22296;50.824;5.644;2023-08-30T01:02:43;99995.06;;;19.59;54.75
36260;BME280;22296;50.824;5.644;2023-08-30T01:05:11;99995.88;;;19.60;54.93
36260;BME280;22296;50.824;5.644;2023-08-30T01:07:38;99989.47;;;19.59;54.99
36260;BME280;22296;50.824;5.644;2023-08-30T01:10:06;99985.84;;;19.59;55.07
36260;BME280;22296;50.824;5.644;2023-08-30T01:12:53;99987.84;;;19.58;55.01
36260;BME280;22296;50.824;5.644;2023-08-30T01:15:25;99983.88;;;19.59;55.15
36260;BME280;22296;50.824;5.644;2023-08-30T01:17:53;99969.88;;;19.59;55.48
36260;BME280;22296;50.824;5.644;2023-08-30T01:20:23;99969.44;;;19.57;55.53
36260;BME280;22296;50.824;5.644;2023-08-30T01:26:13;99970.63;;;19.56;55.61
36260;BME280;22296;50.824;5.644;2023-08-30T01:28:41;99970.22;;;19.54;55.73
36260;BME280;22296;50.824;5.644;2023-08-30T01:31:08;99967.84;;;19.56;55.97
36260;BME280;22296;50.824;5.644;2023-08-30T01:33:37;99970.22;;;19.54;55.72
36260;BME280;22296;50.824;5.644;2023-08-30T01:36:04;99967.41;;;19.54;55.86
36260;BME280;22296;50.824;5.644;2023-08-30T01:38:32;99962.97;;;19.53;56.07
36260;BME280;22296;50.824;5.644;2023-08-30T01:41:01;99966.94;;;19.52;56.00
36260;BME280;22296;50.824;5.644;2023-08-30T01:43:30;99957.41;;;19.53;56.01
36260;BME280;22296;50.824;5.644;2023-08-30T01:45:59;99957.41;;;19.53;56.11
36260;BME280;22296;50.824;5.644;2023-08-30T01:48:28;99962.19;;;19.53;56.03
36260;BME280;22296;50.824;5.644;2023-08-30T01:50:56;99959.38;;;19.53;56.16
36260;BME280;22296;50.824;5.644;2023-08-30T01:53:28;99968.50;;;19.50;56.16
36260;BME280;22296;50.824;5.644;2023-08-30T01:55:55;99966.13;;;19.52;56.19
36260;BME280;22296;50.824;5.644;2023-08-30T01:58:22;99968.94;;;19.52;56.28
36260;BME280;22296;50.824;5.644;2023-08-30T02:00:49;99955.34;;;19.50;56.28
36260;BME280;22296;50.824;5.644;2023-08-30T02:03:15;99961.34;;;19.52;56.48
36260;BME280;22296;50.824;5.644;2023-08-30T02:08:40;99958.94;;;19.51;56.60
36260;BME280;22296;50.824;5.644;2023-08-30T02:11:13;99959.31;;;19.49;56.75
36260;BME280;22296;50.824;5.644;2023-08-30T02:13:42;99959.31;;;19.49;56.78
36260;BME280;22296;50.824;5.644;2023-08-30T02:16:10;99949.66;;;19.47;56.56
36260;BME280;22296;50.824;5.644;2023-08-30T02:18:41;99949.31;;;19.48;56.76
36260;BME280;22296;50.824;5.644;2023-08-30T02:21:09;99948.88;;;19.46;56.68
36260;BME280;22296;50.824;5.644;2023-08-30T02:23:36;99956.50;;;19.49;56.80
36260;BME280;22296;50.824;5.644;2023-08-30T02:26:03;99960.50;;;19.48;56.60
36260;BME280;22296;50.824;5.644;2023-08-30T02:28:30;99961.69;;;19.47;56.95
36260;BME280;22296;50.824;5.644;2023-08-30T02:30:58;99951.66;;;19.46;56.75
36260;BME280;22296;50.824;5.644;2023-08-30T02:33:24;99954.09;;;19.48;56.69
36260;BME280;22296;50.824;5.644;2023-08-30T02:35:51;99954.03;;;19.44;56.90
36260;BME280;22296;50.824;5.644;2023-08-30T02:38:20;99947.25;;;19.45;56.90
36260;BME280;22296;50.824;5.644;2023-08-30T02:40:47;99950.50;;;19.47;56.88
36260;BME280;22296;50.824;5.644;2023-08-30T02:43:17;99945.28;;;19.46;56.97
36260;BME280;22296;50.824;5.644;2023-08-30T02:45:43;99941.28;;;19.47;56.78
36260;BME280;22296;50.824;5.644;2023-08-30T02:48:10;99943.66;;;19.45;57.18
36260;BME280;22296;50.824;5.644;2023-08-30T02:50:38;99934.03;;;19.42;57.22
36260;BME280;22296;50.824;5.644;2023-08-30T02:53:05;99939.16;;;19.40;57.20
36260;BME280;22296;50.824;5.644;2023-08-30T02:55:35;99938.00;;;19.41;57.12
36260;BME280;22296;50.824;5.644;2023-08-30T02:58:02;99930.31;;;19.38;57.18
36260;BME280;22296;50.824;5.644;2023-08-30T03:00:29;99927.97;;;19.40;57.10
36260;BME280;22296;50.824;5.644;2023-08-30T03:02:57;99923.59;;;19.39;57.37
36260;BME280;22296;50.824;5.644;2023-08-30T03:05:24;99933.47;;;19.56;57.05
36260;BME280;22296;50.824;5.644;2023-08-30T03:07:50;99925.38;;;19.73;56.47
36260;BME280;22296;50.824;5.644;2023-08-30T03:10:17;99932.38;;;19.86;56.63
36260;BME280;22296;50.824;5.644;2023-08-30T03:12:44;99921.88;;;20.06;56.58
36260;BME280;22296;50.824;5.644;2023-08-30T03:15:11;99925.22;;;20.15;56.31
36260;BME280;22296;50.824;5.644;2023-08-30T03:17:38;99921.00;;;20.25;56.14
36260;BME280;22296;50.824;5.644;2023-08-30T03:20:06;99918.75;;;20.34;55.97
36260;BME280;22296;50.824;5.644;2023-08-30T03:22:33;99926.06;;;20.42;55.95
36260;BME280;22296;50.824;5.644;2023-08-30T03:24:59;99916.03;;;20.41;56.21
36260;BME280;22296;50.824;5.644;2023-08-30T03:27:30;99913.28;;;20.44;56.36
36260;BME280;22296;50.824;5.644;2023-08-30T03:29:56;99911.72;;;20.47;56.38
36260;BME280;22296;50.824;5.644;2023-08-30T03:32:23;99908.16;;;20.50;56.33
36260;BME280;22296;50.824;5.644;2023-08-30T03:34:50;99909.34;;;20.49;56.15
36260;BME280;22296;50.824;5.644;2023-08-30T03:37:17;99910.72;;;20.32;56.56
36260;BME280;22296;50.824;5.644;2023-08-30T03:39:44;99904.22;;;20.25;56.86
36260;BME280;22296;50.824;5.644;2023-08-30T03:42:11;99912.28;;;20.30;56.54
36260;BME280;22296;50.824;5.644;2023-08-30T03:44:38;99899.44;;;20.25;56.63
36260;BME280;22296;50.824;5.644;2023-08-30T03:47:06;99898.91;;;20.20;57.02
36260;BME280;22296;50.824;5.644;2023-08-30T03:49:34;99897.28;;;20.19;56.78
36260;BME280;22296;50.824;5.644;2023-08-30T03:52:02;99896.06;;;20.16;56.97
36260;BME280;22296;50.824;5.644;2023-08-30T03:54:29;99894.38;;;20.12;56.93
36260;BME280;22296;50.824;5.644;2023-08-30T03:56:56;99897.19;;;20.12;56.86
36260;BME280;22296;50.824;5.644;2023-08-30T03:59:23;99897.19;;;20.12;57.29
36260;BME280;22296;50.824;5.644;2023-08-30T04:01:54;99897.97;;;20.09;57.19
36260;BME280;22296;50.824;5.644;2023-08-30T04:04:21;99899.88;;;20.05;57.21
36260;BME280;22296;50.824;5.644;2023-08-30T04:06:47;99888.69;;;20.05;57.44
36260;BME280;22296;50.824;5.644;2023-08-30T04:09:15;99887.81;;;20.01;57.41
36260;BME280;22296;50.824;5.644;2023-08-30T04:11:43;99876.63;;;20.01;57.38
36260;BME280;22296;50.824;5.644;2023-08-30T04:14:10;99875.03;;;20.00;57.70
36260;BME280;22296;50.824;5.644;2023-08-30T04:16:37;99877.81;;;20.00;57.42
36260;BME280;22296;50.824;5.644;2023-08-30T04:19:06;99879.81;;;19.99;57.40
36260;BME280;22296;50.824;5.644;2023-08-30T04:21:33;99878.56;;;19.97;57.71
36260;BME280;22296;50.824;5.644;2023-08-30T04:24:00;99876.94;;;19.96;57.98
36260;BME280;22296;50.824;5.644;2023-08-30T04:26:27;99866.94;;;19.95;57.96
36260;BME280;22296;50.824;5.644;2023-08-30T04:28:54;99866.94;;;19.95;57.52
36260;BME280;22296;50.824;5.644;2023-08-30T04:31:21;99855.75;;;19.95;57.61
36260;BME280;22296;50.824;5.644;2023-08-30T04:33:47;99865.34;;;19.94;57.88
36260;BME280;22296;50.824;5.644;2023-08-30T04:36:14;99861.34;;;19.95;57.75
36260;BME280;22296;50.824;5.644;2023-08-30T04:38:42;99858.94;;;19.93;58.03
36260;BME280;22296;50.824;5.644;2023-08-30T04:41:26;99860.50;;;19.90;57.88
36260;BME280;22296;50.824;5.644;2023-08-30T04:43:53;99860.50;;;19.90;57.85
36260;BME280;22296;50.824;5.644;2023-08-30T04:46:21;99856.53;;;19.92;58.03
36260;BME280;22296;50.824;5.644;2023-08-30T04:48:48;99853.28;;;19.89;57.85
36260;BME280;22296;50.824;5.644;2023-08-30T04:51:15;99861.25;;;19.87;58.22
36260;BME280;22296;50.824;5.644;2023-08-30T04:53:42;99850.88;;;19.88;58.08
36260;BME280;22296;50.824;5.644;2023-08-30T04:56:14;99854.47;;;19.88;58.05
36260;BME280;22296;50.824;5.644;2023-08-30T04:58:41;99848.44;;;19.86;58.06
36260;BME280;22296;50.824;5.644;2023-08-30T05:01:10;99845.63;;;19.86;58.36
36260;BME280;22296;50.824;5.644;2023-08-30T05:03:42;99839.63;;;19.84;58.36
36260;BME280;22296;50.824;5.644;2023-08-30T05:06:11;99840.78;;;19.83;58.51
36260;BME280;22296;50.824;5.644;2023-08-30T05:08:43;99836.44;;;19.86;58.07
36260;BME280;22296;50.824;5.644;2023-08-30T05:11:10;99843.59;;;19.83;58.49
36260;BME280;22296;50.824;5.644;2023-08-30T05:13:37;99839.19;;;19.82;58.42
36260;BME280;22296;50.824;5.644;2023-08-30T05:16:04;99840.78;;;19.83;58.22
36260;BME280;22296;50.824;5.644;2023-08-30T05:18:31;99832.78;;;19.82;58.38
36260;BME280;22296;50.824;5.644;2023-08-30T05:21:00;99833.16;;;19.80;58.49
36260;BME280;22296;50.824;5.644;2023-08-30T05:23:30;99827.59;;;19.84;58.20
36260;BME280;22296;50.824;5.644;2023-08-30T05:25:58;99830.00;;;19.82;58.31
36260;BME280;22296;50.824;5.644;2023-08-30T05:28:25;99826.38;;;19.81;58.63
36260;BME280;22296;50.824;5.644;2023-08-30T05:30:52;99819.59;;;19.82;58.44
36260;BME280;22296;50.824;5.644;2023-08-30T05:33:47;99821.97;;;19.80;58.16
36260;BME280;22296;50.824;5.644;2023-08-30T05:36:44;99822.75;;;19.81;58.42
36260;BME280;22296;50.824;5.644;2023-08-30T05:39:29;99821.97;;;19.80;58.31
36260;BME280;22296;50.824;5.644;2023-08-30T05:41:56;99812.38;;;19.81;58.51
36260;BME280;22296;50.824;5.644;2023-08-30T05:44:24;99817.16;;;19.81;58.50
36260;BME280;22296;50.824;5.644;2023-08-30T05:46:51;99810.75;;;19.80;58.13
36260;BME280;22296;50.824;5.644;2023-08-30T05:49:18;99809.97;;;19.80;58.39
36260;BME280;22296;50.824;5.644;2023-08-30T05:51:45;99806.38;;;19.79;58.27
36260;BME280;22296;50.824;5.644;2023-08-30T05:54:12;99799.16;;;19.78;58.66
36260;BME280;22296;50.824;5.644;2023-08-30T05:56:40;99796.34;;;19.78;58.78
36260;BME280;22296;50.824;5.644;2023-08-30T05:59:08;99798.72;;;19.76;58.50
36260;BME280;22296;50.824;5.644;2023-08-30T06:01:35;99790.75;;;19.78;58.37
36260;BME280;22296;50.824;5.644;2023-08-30T06:04:02;99785.97;;;19.79;58.38
36260;BME280;22296;50.824;5.644;2023-08-30T06:06:31;99792.38;;;19.79;58.43
36260;BME280;22296;50.824;5.644;2023-08-30T06:08:58;99783.53;;;19.77;58.52
36260;BME280;22296;50.824;5.644;2023-08-30T06:11:24;99785.16;;;19.78;58.44
36260;BME280;22296;50.824;5.644;2023-08-30T06:13:51;99778.81;;;19.81;58.42
36260;BME280;22296;50.824;5.644;2023-08-30T06:16:18;99790.75;;;19.78;58.59
36260;BME280;22296;50.824;5.644;2023-08-30T06:18:45;99781.19;;;19.79;58.41
36260;BME280;22296;50.824;5.644;2023-08-30T06:21:11;99785.56;;;19.77;58.38
36260;BME280;22296;50.824;5.644;2023-08-30T06:23:38;99779.16;;;19.76;58.49
36260;BME280;22296;50.824;5.644;2023-08-30T06:26:05;99781.94;;;19.76;58.54
36260;BME280;22296;50.824;5.644;2023-08-30T06:28:32;99781.19;;;19.79;58.36
36260;BME280;22296;50.824;5.644;2023-08-30T06:30:59;99781.19;;;19.79;58.40
36260;BME280;22296;50.824;5.644;2023-08-30T06:33:26;99782.00;;;19.80;58.61
36260;BME280;22296;50.824;5.644;2023-08-30T06:35:53;99779.56;;;19.78;58.49
36260;BME280;22296;50.824;5.644;2023-08-30T06:38:21;99781.56;;;19.78;58.67
36260;BME280;22296;50.824;5.644;2023-08-30T06:40:48;99783.53;;;19.77;58.70
36260;BME280;22296;50.824;5.644;2023-08-30T06:43:16;99788.38;;;19.80;58.61
36260;BME280;22296;50.824;5.644;2023-08-30T06:45:42;99780.38;;;19.79;58.81
36260;BME280;22296;50.824;5.644;2023-08-30T06:48:10;99789.94;;;19.78;58.60
36260;BME280;22296;50.824;5.644;2023-08-30T06:50:38;99793.13;;;19.76;58.78
36260;BME280;22296;50.824;5.644;2023-08-30T06:53:05;99783.53;;;19.77;58.60
36260;BME280;22296;50.824;5.644;2023-08-30T06:55:32;99800.31;;;19.74;58.99
36260;BME280;22296;50.824;5.644;2023-08-30T06:58:00;99798.72;;;19.76;58.80
36260;BME280;22296;50.824;5.644;2023-08-30T07:00:26;99806.03;;;19.84;58.38
36260;BME280;22296;50.824;5.644;2023-08-30T07:02:53;99790.41;;;19.83;58.35
36260;BME280;22296;50.824;5.644;2023-08-30T07:05:21;99789.19;;;19.81;58.62
36260;BME280;22296;50.824;5.644;2023-08-30T07:07:49;99787.97;;;19.78;58.76
36260;BME280;22296;50.824;5.644;2023-08-30T07:10:16;99783.53;;;19.77;58.47
36260;BME280;22296;50.824;5.644;2023-08-30T07:12:43;99774.38;;;19.77;58.82
36260;BME280;22296;50.824;5.644;2023-08-30T07:15:11;99773.97;;;19.78;58.76
36260;BME280;22296;50.824;5.644;2023-08-30T07:17:38;99769.19;;;19.79;58.72
36260;BME280;22296;50.824;5.644;2023-08-30T07:20:19;99769.94;;;19.76;58.89
36260;BME280;22296;50.824;5.644;2023-08-30T07:22:46;99774.72;;;19.75;59.08
36260;BME280;22296;50.824;5.644;2023-08-30T07:25:13;99769.56;;;19.77;58.94
36260;BME280;22296;50.824;5.644;2023-08-30T07:27:40;99766.38;;;19.79;58.76
36260;BME280;22296;50.824;5.644;2023-08-30T07:30:08;99764.41;;;19.79;58.88
36260;BME280;22296;50.824;5.644;2023-08-30T07:32:34;99770.00;;;19.79;58.72
36260;BME280;22296;50.824;5.644;2023-08-30T07:35:03;99765.53;;;19.75;59.10
36260;BME280;22296;50.824;5.644;2023-08-30T07:37:30;99770.75;;;19.76;58.98
36260;BME280;22296;50.824;5.644;2023-08-30T07:39:57;99773.97;;;19.78;59.00
36260;BME280;22296;50.824;5.644;2023-08-30T07:42:24;99775.59;;;19.79;58.80
36260;BME280;22296;50.824;5.644;2023-08-30T07:44:52;99779.97;;;19.77;58.71
36260;BME280;22296;50.824;5.644;2023-08-30T07:47:18;99774.31;;;19.73;59.15
36260;BME280;22296;50.824;5.644;2023-08-30T07:49:46;99786.31;;;19.74;58.67
36260;BME280;22296;50.824;5.644;2023-08-30T07:52:13;99775.47;;;19.72;59.20
36260;BME280;22296;50.824;5.644;2023-08-30T07:54:40;99775.53;;;19.76;59.00
36260;BME280;22296;50.824;5.644;2023-08-30T07:57:08;99775.91;;;19.74;59.11
36260;BME280;22296;50.824;5.644;2023-08-30T07:59:36;99769.06;;;19.72;59.10
36260;BME280;22296;50.824;5.644;2023-08-30T08:02:04;99767.50;;;19.74;59.12
36260;BME280;22296;50.824;5.644;2023-08-30T08:04:34;99771.44;;;19.70;59.26
36260;BME280;22296;50.824;5.644;2023-08-30T08:07:02;99769.88;;;19.72;59.03
36260;BME280;22296;50.824;5.644;2023-08-30T08:09:31;99759.56;;;19.76;59.11
36260;BME280;22296;50.824;5.644;2023-08-30T08:11:58;99761.91;;;19.74;58.91
36260;BME280;22296;50.824;5.644;2023-08-30T08:14:24;99753.91;;;19.73;59.09
36260;BME280;22296;50.824;5.644;2023-08-30T08:16:52;99745.91;;;19.71;59.03
36260;BME280;22296;50.824;5.644;2023-08-30T08:19:19;99745.09;;;19.71;59.01
36260;BME280;22296;50.824;5.644;2023-08-30T08:21:51;99742.31;;;19.71;59.13
36260;BME280;22296;50.824;5.644;2023-08-30T08:24:20;99735.47;;;19.68;59.02
36260;BME280;22296;50.824;5.644;2023-08-30T08:26:47;99731.47;;;19.69;59.14
36260;BME280;22296;50.824;5.644;2023-08-30T08:29:14;99738.69;;;19.70;58.63
36260;BME280;22296;50.824;5.644;2023-08-30T08:31:41;99740.31;;;19.71;58.67
36260;BME280;22296;50.824;5.644;2023-08-30T08:34:11;99738.28;;;19.68;58.97
36260;BME280;22296;50.824;5.644;2023-08-30T08:36:39;99734.72;;;19.71;58.92
36260;BME280;22296;50.824;5.644;2023-08-30T08:39:06;99737.47;;;19.68;58.81
36260;BME280;22296;50.824;5.644;2023-08-30T08:41:40;99735.47;;;19.68;58.82
36260;BME280;22296;50.824;5.644;2023-08-30T08:44:09;99740.31;;;19.71;58.61
36260;BME280;22296;50.824;5.644;2023-08-30T08:46:37;99737.94;;;19.73;58.61
36260;BME280;22296;50.824;5.644;2023-08-30T08:49:09;99740.75;;;19.73;58.70
36260;BME280;22296;50.824;5.644;2023-08-30T08:51:38;99751.16;;;19.76;58.48
36260;BME280;22296;50.824;5.644;2023-08-30T08:54:05;99750.72;;;19.74;58.53
36260;BME280;22296;50.824;5.644;2023-08-30T08:56:33;99741.56;;;19.74;58.53
36260;BME280;22296;50.824;5.644;2023-08-30T08:59:00;99749.13;;;19.73;58.65
36260;BME280;22296;50.824;5.644;2023-08-30T09:01:28;99755.53;;;19.74;58.59
36260;BME280;22296;50.824;5.644;2023-08-30T09:04:05;99756.78;;;19.76;58.68
36260;BME280;22296;50.824;5.644;2023-08-30T09:06:35;99761.91;;;19.74;59.01
36260;BME280;22296;50.824;5.644;2023-08-30T09:09:03;99765.16;;;19.76;58.75
36260;BME280;22296;50.824;5.644;2023-08-30T09:11:31;99775.59;;;19.79;58.92
36260;BME280;22296;50.824;5.644;2023-08-30T09:14:16;99768.78;;;19.77;59.06
36260;BME280;22296;50.824;5.644;2023-08-30T09:16:57;99780.25;;;19.72;59.21
36260;BME280;22296;50.824;5.644;2023-08-30T09:19:24;99773.09;;;19.74;59.07
36260;BME280;22296;50.824;5.644;2023-08-30T09:21:55;99779.16;;;19.76;59.25
36260;BME280;22296;50.824;5.644;2023-08-30T09:24:22;99782.75;;;19.77;58.93
36260;BME280;22296;50.824;5.644;2023-08-30T09:26:51;99777.91;;;19.74;59.40
36260;BME280;22296;50.824;5.644;2023-08-30T09:29:19;99784.28;;;19.74;59.36
36260;BME280;22296;50.824;5.644;2023-08-30T09:31:51;99779.91;;;19.73;59.09
36260;BME280;22296;50.824;5.644;2023-08-30T09:34:22;99776.28;;;19.73;59.37
36260;BME280;22296;50.824;5.644;2023-08-30T09:36:49;99773.88;;;19.71;59.48
36260;BME280;22296;50.824;5.644;2023-08-30T09:39:16;99781.88;;;19.73;59.32
36260;BME280;22296;50.824;5.644;2023-08-30T09:41:45;99777.09;;;19.73;59.49
36260;BME280;22296;50.824;5.644;2023-08-30T09:44:19;99765.84;;;19.70;59.66
36260;BME280;22296;50.824;5.644;2023-08-30T09:46:52;99761.06;;;19.70;59.51
36260;BME280;22296;50.824;5.644;2023-08-30T09:49:25;99761.88;;;19.71;59.74
36260;BME280;22296;50.824;5.644;2023-08-30T09:51:53;99765.91;;;19.73;59.22
36260;BME280;22296;50.824;5.644;2023-08-30T09:54:22;99765.91;;;19.73;59.52
36260;BME280;22296;50.824;5.644;2023-08-30T09:57:06;99769.88;;;19.72;59.56
36260;BME280;22296;50.824;5.644;2023-08-30T09:59:33;99765.50;;;19.71;59.53
36260;BME280;22296;50.824;5.644;2023-08-30T10:02:00;99757.09;;;19.71;59.92
36260;BME280;22296;50.824;5.644;2023-08-30T10:04:28;99757.88;;;19.72;59.64
36260;BME280;22296;50.824;5.644;2023-08-30T10:06:56;99762.69;;;19.71;59.47
36260;BME280;22296;50.824;5.644;2023-08-30T10:09:28;99759.44;;;19.69;59.93
36260;BME280;22296;50.824;5.644;2023-08-30T10:11:58;99761.06;;;19.70;60.03
36260;BME280;22296;50.824;5.644;2023-08-30T10:14:25;99760.31;;;19.73;59.61
36260;BME280;22296;50.824;5.644;2023-08-30T10:16:57;99765.91;;;19.73;59.78
36260;BME280;22296;50.824;5.644;2023-08-30T10:19:27;99760.25;;;19.70;60.05
36260;BME280;22296;50.824;5.644;2023-08-30T10:22:05;99762.69;;;19.71;59.64
36260;BME280;22296;50.824;5.644;2023-08-30T10:24:39;99771.50;;;19.73;59.79
36260;BME280;22296;50.824;5.644;2023-08-30T10:27:30;99758.63;;;19.69;59.93
36260;BME280;22296;50.824;5.644;2023-08-30T10:29:59;99761.06;;;19.70;59.83
36260;BME280;22296;50.824;5.644;2023-08-30T10:32:27;99753.84;;;19.69;60.32
36260;BME280;22296;50.824;5.644;2023-08-30T10:34:54;99748.66;;;19.68;60.11
36260;BME280;22296;50.824;5.644;2023-08-30T10:37:26;99746.28;;;19.70;59.99
36260;BME280;22296;50.824;5.644;2023-08-30T10:39:59;99746.28;;;19.70;59.97
36260;BME280;22296;50.824;5.644;2023-08-30T10:42:26;99745.91;;;19.71;60.14
36260;BME280;22296;50.824;5.644;2023-08-30T10:47:31;99749.06;;;19.70;60.19
36260;BME280;22296;50.824;5.644;2023-08-30T10:49:59;99755.09;;;19.72;60.19
36260;BME280;22296;50.824;5.644;2023-08-30T10:52:27;99753.97;;;19.76;59.90
36260;BME280;22296;50.824;5.644;2023-08-30T10:55:14;99749.88;;;19.70;60.00
36260;BME280;22296;50.824;5.644;2023-08-30T10:57:43;99753.50;;;19.71;60.07
36260;BME280;22296;50.824;5.644;2023-08-30T11:00:12;99745.47;;;19.69;60.47
36260;BME280;22296;50.824;5.644;2023-08-30T11:02:44;99754.31;;;19.71;60.05
36260;BME280;22296;50.824;5.644;2023-08-30T11:05:16;99750.69;;;19.71;60.40
36260;BME280;22296;50.824;5.644;2023-08-30T11:07:46;99754.66;;;19.70;60.21
36260;BME280;22296;50.824;5.644;2023-08-30T11:10:13;99757.84;;;19.68;60.42
36260;BME280;22296;50.824;5.644;2023-08-30T11:12:41;99749.88;;;19.70;60.42
36260;BME280;22296;50.824;5.644;2023-08-30T11:15:09;99743.41;;;19.66;60.44
36260;BME280;22296;50.824;5.644;2023-08-30T11:17:37;99745.03;;;19.67;60.77
36260;BME280;22296;50.824;5.644;2023-08-30T11:20:08;99745.03;;;19.67;60.49
36260;BME280;22296;50.824;5.644;2023-08-30T11:22:37;99740.31;;;19.71;60.20
36260;BME280;22296;50.824;5.644;2023-08-30T11:25:04;99741.97;;;19.76;60.09
36260;BME280;22296;50.824;5.644;2023-08-30T11:27:31;99741.91;;;19.72;60.16
36260;BME280;22296;50.824;5.644;2023-08-30T11:30:00;99742.72;;;19.73;60.31
36260;BME280;22296;50.824;5.644;2023-08-30T11:32:32;99740.31;;;19.71;60.60
36260;BME280;22296;50.824;5.644;2023-08-30T11:35:00;99746.66;;;19.68;60.53
36260;BME280;22296;50.824;5.644;2023-08-30T11:37:27;99745.91;;;19.71;60.52
36260;BME280;22296;50.824;5.644;2023-08-30T11:39:55;99728.34;;;19.74;60.18
36260;BME280;22296;50.824;5.644;2023-08-30T11:42:22;99723.56;;;19.75;60.12
36260;BME280;22296;50.824;5.644;2023-08-30T11:44:50;99722.72;;;19.71;60.50
36260;BME280;22296;50.824;5.644;2023-08-30T11:47:23;99730.31;;;19.70;60.45
36260;BME280;22296;50.824;5.644;2023-08-30T11:49:52;99729.13;;;19.71;60.48
36260;BME280;22296;50.824;5.644;2023-08-30T11:52:20;99737.06;;;19.69;60.85
36260;BME280;22296;50.824;5.644;2023-08-30T11:54:50;99732.72;;;19.72;60.55
36260;BME280;22296;50.824;5.644;2023-08-30T11:57:17;99733.09;;;19.70;60.68
36260;BME280;22296;50.824;5.644;2023-08-30T11:59:45;99732.28;;;19.70;60.98
36260;BME280;22296;50.824;5.644;2023-08-30T12:02:12;99737.06;;;19.69;60.86
36260;BME280;22296;50.824;5.644;2023-08-30T12:04:41;99737.06;;;19.69;60.77
36260;BME280;22296;50.824;5.644;2023-08-30T12:07:09;99735.91;;;19.70;60.53
36260;BME280;22296;50.824;5.644;2023-08-30T12:09:37;99737.19;;;19.76;60.29
36260;BME280;22296;50.824;5.644;2023-08-30T12:12:05;99735.19;;;19.77;60.34
36260;BME280;22296;50.824;5.644;2023-08-30T12:14:34;99738.03;;;19.80;60.23
36260;BME280;22296;50.824;5.644;2023-08-30T12:17:01;99730.84;;;19.79;60.54
36260;BME280;22296;50.824;5.644;2023-08-30T12:19:31;99745.56;;;19.76;60.52
36260;BME280;22296;50.824;5.644;2023-08-30T12:22:05;99743.63;;;19.80;60.45
36260;BME280;22296;50.824;5.644;2023-08-30T12:24:44;99746.00;;;19.78;60.29
36260;BME280;22296;50.824;5.644;2023-08-30T12:27:12;99749.22;;;19.80;60.47
36260;BME280;22296;50.824;5.644;2023-08-30T12:29:39;99742.03;;;19.79;60.53
36260;BME280;22296;50.824;5.644;2023-08-30T12:32:07;99746.88;;;19.82;60.39
36260;BME280;22296;50.824;5.644;2023-08-30T12:34:34;99748.44;;;19.80;60.47
36260;BME280;22296;50.824;5.644;2023-08-30T12:37:02;99749.59;;;19.79;60.57
36260;BME280;22296;50.824;5.644;2023-08-30T12:39:31;99755.56;;;19.77;60.49
36260;BME280;22296;50.824;5.644;2023-08-30T12:41:57;99751.16;;;19.76;60.64
36260;BME280;22296;50.824;5.644;2023-08-30T12:44:24;99757.53;;;19.73;60.87
36260;BME280;22296;50.824;5.644;2023-08-30T12:46:51;99753.09;;;19.72;60.63
36260;BME280;22296;50.824;5.644;2023-08-30T12:49:18;99745.94;;;19.75;60.71
36260;BME280;22296;50.824;5.644;2023-08-30T12:51:45;99751.50;;;19.71;60.61
36260;BME280;22296;50.824;5.644;2023-08-30T12:54:11;99748.72;;;19.71;60.82
36260;BME280;22296;50.824;5.644;2023-08-30T12:56:38;99743.91;;;19.72;60.69
36260;BME280;22296;50.824;5.644;2023-08-30T12:59:05;99747.50;;;19.72;60.76
36260;BME280;22296;50.824;5.644;2023-08-30T13:01:32;99745.09;;;19.71;60.75
36260;BME280;22296;50.824;5.644;2023-08-30T13:03:59;99740.31;;;19.71;60.65
36260;BME280;22296;50.824;5.644;2023-08-30T13:06:26;99743.47;;;19.70;60.75
36260;BME280;22296;50.824;5.644;2023-08-30T13:08:52;99737.06;;;19.69;60.76
36260;BME280;22296;50.824;5.644;2023-08-30T13:11:19;99739.88;;;19.69;60.96
36260;BME280;22296;50.824;5.644;2023-08-30T13:13:47;99748.25;;;19.69;60.65
36260;BME280;22296;50.824;5.644;2023-08-30T13:16:13;99751.50;;;19.71;60.72